Time;durP1;ratioP1;P1;durP2;ratioP2;P2;SDS_P1;SDS_P2;PMS_P1;PMS_P2;Temp;Humidity;BMP_temperature;BMP_pressure;BME280_temperature;BME280_humidity;BME280_pressure;Samples;Min_cycle;Max_cycle;Signal;HPM_P1;HPM_P2
2022/07/27 00:02:23;;;;;;;5.23;1.67;;;20.30;15.10;;;;;;5022500;28;20483;-60
2022/07/27 00:04:50;;;;;;;4.57;1.43;;;20.30;14.90;;;;;;5025018;28;20465;-60
2022/07/27 00:07:16;;;;;;;6.07;1.77;;;20.30;14.80;;;;;;5024362;28;20459;-60
2022/07/27 00:09:43;;;;;;;5.20;1.37;;;20.30;15.00;;;;;;5026332;28;20491;-61
2022/07/27 00:12:10;;;;;;;6.43;1.63;;;20.40;14.90;;;;;;5023991;28;20471;-60
2022/07/27 00:14:38;;;;;;;5.20;1.63;;;20.40;14.80;;;;;;5025345;28;20463;-60
2022/07/27 00:17:05;;;;;;;5.13;1.90;;;20.40;15.10;;;;;;5024530;28;20455;-61
2022/07/27 00:19:31;;;;;;;9.90;1.50;;;20.50;15.40;;;;;;5025887;28;21037;-60
2022/07/27 00:21:58;;;;;;;6.67;2.27;;;20.40;15.70;;;;;;5024070;28;20482;-61
2022/07/27 00:24:25;;;;;;;5.70;1.90;;;20.50;15.70;;;;;;5022075;28;20494;-60
2022/07/27 00:26:52;;;;;;;5.40;1.80;;;20.50;15.50;;;;;;5025928;28;20474;-60
2022/07/27 00:29:19;;;;;;;5.97;1.90;;;20.50;15.30;;;;;;5024129;28;20482;-60
2022/07/27 00:31:47;;;;;;;4.33;1.57;;;20.50;15.10;;;;;;5012007;28;20472;-60
2022/07/27 00:34:13;;;;;;;4.00;1.40;;;20.60;15.10;;;;;;5002410;28;20460;-60
2022/07/27 00:36:40;;;;;;;5.57;2.07;;;20.60;15.10;;;;;;5004992;28;20467;-60
2022/07/27 00:39:07;;;;;;;5.23;1.67;;;20.60;15.10;;;;;;5005001;28;20484;-60
2022/07/27 00:41:34;;;;;;;4.43;1.47;;;20.60;15.20;;;;;;5005671;28;20491;-61
2022/07/27 00:44:00;;;;;;;4.83;1.50;;;20.60;15.20;;;;;;5003283;28;21054;-60
2022/07/27 00:46:28;;;;;;;6.80;1.87;;;20.60;15.20;;;;;;5004857;28;22664;-60
2022/07/27 00:48:56;;;;;;;5.77;2.10;;;20.60;15.50;;;;;;5005839;28;20480;-60
2022/07/27 00:51:24;;;;;;;6.37;1.87;;;20.50;16.30;;;;;;5005257;28;20832;-60
2022/07/27 00:53:52;;;;;;;4.37;1.90;;;20.40;16.70;;;;;;5005436;28;20468;-60
2022/07/27 00:56:20;;;;;;;5.27;1.80;;;20.30;17.20;;;;;;5005445;28;20483;-61
2022/07/27 00:58:48;;;;;;;6.50;1.90;;;20.20;17.70;;;;;;5004830;28;20500;-61
2022/07/27 01:01:16;;;;;;;5.97;2.03;;;20.30;17.80;;;;;;5004671;28;20503;-60
2022/07/27 01:03:42;;;;;;;6.80;1.67;;;20.20;17.90;;;;;;5005293;28;20483;-60
2022/07/27 01:06:11;;;;;;;7.17;2.27;;;20.20;17.70;;;;;;5004667;28;20471;-60
2022/07/27 01:08:38;;;;;;;6.30;2.27;;;20.30;17.70;;;;;;5006223;28;20840;-61
2022/07/27 01:11:06;;;;;;;6.47;2.10;;;20.20;17.70;;;;;;5003712;28;20494;-60
2022/07/27 01:13:33;;;;;;;8.23;2.23;;;20.20;18.10;;;;;;5004687;28;20475;-60
2022/07/27 01:16:00;;;;;;;5.40;1.70;;;20.20;18.30;;;;;;5004547;28;20460;-60
2022/07/27 01:18:30;;;;;;;6.00;2.37;;;20.20;18.50;;;;;;5006079;28;20471;-60
2022/07/27 01:20:58;;;;;;;11.13;3.77;;;20.10;18.60;;;;;;5003059;28;21267;-60
2022/07/27 01:23:27;;;;;;;7.60;2.27;;;20.10;18.10;;;;;;5005039;28;20482;-60
2022/07/27 01:25:53;;;;;;;4.10;1.80;;;20.10;18.00;;;;;;5004210;28;20476;-61
2022/07/27 01:28:20;;;;;;;5.00;2.30;;;20.10;17.70;;;;;;5005606;28;20468;-60
2022/07/27 01:30:47;;;;;;;5.63;1.90;;;20.20;17.70;;;;;;5007555;28;20478;-61
2022/07/27 01:33:14;;;;;;;8.27;2.50;;;20.20;18.00;;;;;;5015481;28;20455;-60
2022/07/27 01:35:41;;;;;;;6.67;2.13;;;20.10;18.20;;;;;;5016304;28;20522;-61
2022/07/27 01:38:09;;;;;;;6.63;2.30;;;20.10;18.10;;;;;;5019419;28;20470;-60
2022/07/27 01:40:38;;;;;;;5.07;1.87;;;20.10;18.30;;;;;;5017930;28;20483;-61
2022/07/27 01:43:05;;;;;;;7.30;2.20;;;20.10;18.10;;;;;;5017523;28;21066;-60
2022/07/27 01:45:32;;;;;;;4.50;2.00;;;20.10;18.10;;;;;;5018620;28;20466;-60
2022/07/27 01:47:59;;;;;;;4.80;1.80;;;20.10;18.00;;;;;;5026794;28;20486;-61
2022/07/27 01:50:26;;;;;;;6.80;2.50;;;20.10;18.30;;;;;;5023988;28;20487;-59
2022/07/27 01:52:52;;;;;;;4.47;1.97;;;20.00;18.60;;;;;;5022976;28;20462;-60
2022/07/27 01:55:19;;;;;;;7.90;2.13;;;20.00;19.10;;;;;;5028937;28;20475;-60
2022/07/27 01:57:47;;;;;;;6.30;1.90;;;20.00;19.40;;;;;;5026653;28;20471;-61
2022/07/27 02:00:15;;;;;;;5.20;2.20;;;20.00;19.20;;;;;;5023485;28;20487;-60
2022/07/27 02:02:42;;;;;;;5.50;2.37;;;20.10;20.00;;;;;;5016785;28;20459;-61
2022/07/27 02:05:10;;;;;;;5.70;1.80;;;20.10;19.70;;;;;;5026225;28;20454;-60
2022/07/27 02:07:38;;;;;;;9.40;2.13;;;20.00;19.80;;;;;;5023331;28;20467;-60
2022/07/27 02:10:06;;;;;;;5.40;2.20;;;19.90;20.10;;;;;;5022148;28;20482;-60
2022/07/27 02:12:34;;;;;;;5.57;2.07;;;19.80;20.20;;;;;;5020102;28;20474;-61
2022/07/27 02:15:03;;;;;;;5.30;2.40;;;19.70;20.50;;;;;;5029468;28;21038;-60
2022/07/27 02:17:30;;;;;;;5.67;3.27;;;19.60;20.30;;;;;;5026961;28;20471;-61
2022/07/27 02:19:57;;;;;;;4.27;1.93;;;19.60;20.10;;;;;;5024773;28;20498;-60
2022/07/27 02:22:23;;;;;;;4.63;2.27;;;19.60;20.20;;;;;;5021559;28;21145;-60
2022/07/27 02:24:50;;;;;;;5.17;2.50;;;19.60;20.40;;;;;;5023266;28;20483;-61
2022/07/27 02:27:17;;;;;;;7.90;2.40;;;19.60;20.40;;;;;;5018322;28;20464;-60
2022/07/27 02:29:44;;;;;;;5.40;2.47;;;19.60;20.10;;;;;;5022971;28;20969;-60
2022/07/27 02:32:12;;;;;;;6.00;2.50;;;19.70;20.10;;;;;;5025685;28;20842;-61
2022/07/27 02:34:39;;;;;;;6.40;2.50;;;19.60;20.50;;;;;;5021849;28;20463;-60
2022/07/27 02:37:06;;;;;;;5.00;2.20;;;19.70;20.20;;;;;;5022492;28;20517;-60
2022/07/27 02:39:32;;;;;;;5.20;2.23;;;19.70;20.00;;;;;;5021646;28;20487;-61
2022/07/27 02:41:59;;;;;;;5.30;2.10;;;19.80;19.70;;;;;;5026169;28;20466;-61
2022/07/27 02:44:26;;;;;;;5.23;2.20;;;19.80;19.50;;;;;;5025363;28;20571;-60
2022/07/27 02:46:52;;;;;;;5.63;2.10;;;19.80;19.60;;;;;;5020203;28;20459;-61
2022/07/27 02:49:21;;;;;;;6.53;3.13;;;19.80;19.80;;;;;;5022133;28;20483;-60
2022/07/27 02:51:51;;;;;;;5.53;2.70;;;19.70;19.50;;;;;;5028796;28;20838;-61
2022/07/27 02:54:18;;;;;;;4.77;2.23;;;19.70;19.70;;;;;;5026659;28;20506;-60
2022/07/27 02:56:45;;;;;;;8.07;3.03;;;19.70;19.90;;;;;;5020628;28;20470;-61
2022/07/27 02:59:12;;;;;;;6.10;2.73;;;19.70;19.70;;;;;;5025313;28;20505;-61
2022/07/27 03:01:39;;;;;;;5.63;2.70;;;19.70;19.60;;;;;;5018552;28;20509;-60
2022/07/27 03:04:06;;;;;;;5.50;2.27;;;19.80;19.40;;;;;;5021509;28;20856;-60
2022/07/27 03:06:34;;;;;;;7.30;2.60;;;19.80;19.40;;;;;;5020603;28;20466;-61
2022/07/27 03:09:01;;;;;;;5.43;2.03;;;19.80;19.60;;;;;;5023440;28;20517;-60
2022/07/27 03:11:28;;;;;;;6.33;2.27;;;19.80;19.30;;;;;;5021475;28;20473;-61
2022/07/27 03:13:54;;;;;;;9.50;2.50;;;19.80;19.40;;;;;;5020461;28;20998;-60
2022/07/27 03:16:21;;;;;;;7.70;2.17;;;19.90;19.40;;;;;;5020356;28;20470;-60
2022/07/27 03:18:48;;;;;;;6.60;2.50;;;19.90;19.50;;;;;;5021952;28;20467;-60
2022/07/27 03:21:15;;;;;;;5.53;2.40;;;19.80;19.10;;;;;;5021989;28;20473;-61
2022/07/27 03:23:43;;;;;;;5.33;2.20;;;19.80;19.00;;;;;;5020515;28;20485;-60
2022/07/27 03:26:10;;;;;;;5.00;2.53;;;19.80;19.10;;;;;;5021722;28;20471;-61
2022/07/27 03:28:37;;;;;;;5.50;2.37;;;19.90;19.00;;;;;;5029393;28;20467;-61
2022/07/27 03:31:04;;;;;;;4.60;2.00;;;19.90;19.00;;;;;;5022427;28;20482;-60
2022/07/27 03:33:30;;;;;;;6.17;2.20;;;19.90;19.00;;;;;;5024503;28;20466;-60
2022/07/27 03:35:57;;;;;;;4.87;2.03;;;19.80;19.00;;;;;;5023808;28;21002;-60
2022/07/27 03:38:24;;;;;;;6.40;2.50;;;19.80;19.20;;;;;;5025831;28;20471;-60
2022/07/27 03:40:52;;;;;;;4.97;2.07;;;19.80;19.30;;;;;;5026885;28;20497;-60
2022/07/27 03:43:19;;;;;;;6.73;2.30;;;19.70;19.70;;;;;;5023510;28;20470;-60
2022/07/27 03:45:46;;;;;;;4.40;2.30;;;19.60;19.50;;;;;;5026358;28;20467;-60
2022/07/27 03:48:12;;;;;;;7.63;2.20;;;19.70;19.40;;;;;;5025897;28;20463;-60
2022/07/27 03:50:39;;;;;;;6.90;3.30;;;19.70;19.30;;;;;;5024210;28;20491;-60
2022/07/27 03:53:06;;;;;;;7.07;2.50;;;19.70;19.20;;;;;;5023451;28;20478;-60
2022/07/27 03:55:33;;;;;;;5.23;2.43;;;19.70;19.40;;;;;;5025070;28;20450;-60
2022/07/27 03:58:01;;;;;;;5.60;2.33;;;19.70;19.40;;;;;;5028033;28;20519;-60
2022/07/27 04:00:28;;;;;;;8.40;2.50;;;19.70;19.40;;;;;;5019812;28;20971;-61
2022/07/27 04:02:55;;;;;;;7.27;2.23;;;19.70;19.60;;;;;;5020353;28;21146;-60
2022/07/27 04:05:21;;;;;;;6.27;2.40;;;19.70;19.70;;;;;;5029064;28;20479;-61
2022/07/27 04:07:48;;;;;;;5.57;2.97;;;19.60;19.80;;;;;;5025451;28;20467;-61
2022/07/27 04:10:15;;;;;;;6.70;2.80;;;19.60;20.00;;;;;;5027552;28;20524;-60
2022/07/27 04:12:41;;;;;;;7.10;2.93;;;19.60;20.20;;;;;;5027359;28;20470;-60
2022/07/27 04:15:10;;;;;;;6.93;3.73;;;19.50;21.10;;;;;;5023894;28;20455;-60
2022/07/27 04:17:37;;;;;;;4.57;2.53;;;19.50;21.20;;;;;;5026682;28;20467;-60
2022/07/27 04:20:04;;;;;;;8.20;2.97;;;19.40;21.50;;;;;;5026794;28;20490;-60
2022/07/27 04:22:31;;;;;;;5.10;2.50;;;19.40;21.80;;;;;;5030437;28;20475;-60
2022/07/27 04:24:58;;;;;;;6.30;2.20;;;19.40;21.50;;;;;;5022105;28;20491;-60
2022/07/27 04:27:25;;;;;;;4.83;2.30;;;19.50;21.20;;;;;;5023246;28;20458;-61
2022/07/27 04:29:52;;;;;;;5.57;2.83;;;19.50;20.70;;;;;;5021970;28;21007;-60
2022/07/27 04:32:20;;;;;;;12.13;3.70;;;19.50;20.30;;;;;;5019312;28;20526;-59
2022/07/27 04:34:47;;;;;;;6.17;2.50;;;19.60;20.10;;;;;;5024203;28;20459;-60
2022/07/27 04:37:14;;;;;;;9.93;2.80;;;19.60;20.00;;;;;;5022935;28;20471;-60
2022/07/27 04:39:41;;;;;;;8.10;3.10;;;19.70;20.10;;;;;;5022392;28;20471;-60
2022/07/27 04:42:08;;;;;;;7.57;2.37;;;19.70;20.10;;;;;;5021463;28;20467;-60
2022/07/27 04:44:35;;;;;;;5.30;2.67;;;19.70;20.10;;;;;;5023642;28;21135;-60
2022/07/27 04:47:01;;;;;;;5.27;2.13;;;19.80;20.10;;;;;;5028318;28;20464;-60
2022/07/27 04:49:29;;;;;;;8.10;2.60;;;19.80;20.10;;;;;;5022832;28;20494;-60
2022/07/27 04:51:56;;;;;;;5.80;2.67;;;19.80;20.40;;;;;;5021721;28;20459;-60
2022/07/27 04:54:23;;;;;;;6.77;2.90;;;19.80;20.70;;;;;;5020712;28;20962;-60
2022/07/27 04:56:50;;;;;;;8.73;2.80;;;19.80;21.10;;;;;;5023306;28;20451;-61
2022/07/27 04:59:17;;;;;;;11.20;3.93;;;19.90;20.80;;;;;;5020602;28;20483;-60
2022/07/27 05:01:44;;;;;;;7.43;3.07;;;19.90;21.50;;;;;;5021879;28;20478;-60
2022/07/27 05:04:10;;;;;;;7.20;3.20;;;19.90;21.80;;;;;;5028270;28;20646;-61
2022/07/27 05:06:39;;;;;;;10.77;2.93;;;19.90;22.20;;;;;;5022998;28;20471;-60
2022/07/27 05:09:05;;;;;;;7.03;3.60;;;19.90;22.10;;;;;;5025196;28;20486;-60
2022/07/27 05:11:32;;;;;;;7.10;3.43;;;19.90;21.90;;;;;;5020283;28;20467;-60
2022/07/27 05:13:59;;;;;;;6.63;3.40;;;19.90;21.80;;;;;;5023771;28;20501;-61
2022/07/27 05:16:26;;;;;;;7.80;2.97;;;20.00;22.00;;;;;;5021499;28;20467;-60
2022/07/27 05:18:52;;;;;;;7.60;3.00;;;20.10;21.70;;;;;;5023072;28;20467;-60
2022/07/27 05:21:19;;;;;;;8.70;3.17;;;20.20;21.50;;;;;;5022114;28;20467;-60
2022/07/27 05:23:47;;;;;;;7.93;2.47;;;20.30;21.50;;;;;;5030353;28;20502;-60
2022/07/27 05:26:14;;;;;;;7.63;3.13;;;20.30;21.40;;;;;;5020176;28;20511;-60
2022/07/27 05:28:41;;;;;;;6.30;2.27;;;20.40;21.00;;;;;;5022662;28;20997;-60
2022/07/27 05:31:08;;;;;;;8.40;2.60;;;20.50;20.60;;;;;;5026309;28;20479;-60
2022/07/27 05:33:34;;;;;;;5.67;2.20;;;20.60;20.30;;;;;;5024240;28;20498;-60
2022/07/27 05:36:01;;;;;;;4.80;2.13;;;20.60;19.80;;;;;;5024995;28;21148;-60
2022/07/27 05:38:28;;;;;;;6.20;2.00;;;20.70;19.70;;;;;;5024123;28;20471;-60
2022/07/27 05:40:56;;;;;;;5.30;2.33;;;20.90;19.30;;;;;;5020652;28;20487;-60
2022/07/27 05:43:23;;;;;;;5.50;3.13;;;21.10;19.70;;;;;;5027126;28;20987;-60
2022/07/27 05:45:49;;;;;;;6.73;2.70;;;21.20;19.60;;;;;;5023803;28;20482;-60
2022/07/27 05:48:16;;;;;;;4.67;2.70;;;21.30;19.50;;;;;;5023234;28;20955;-60
2022/07/27 05:50:43;;;;;;;6.87;2.57;;;21.40;19.20;;;;;;5023073;28;20486;-60
2022/07/27 05:53:10;;;;;;;7.37;2.50;;;21.60;18.60;;;;;;5033755;28;20467;-60
2022/07/27 05:55:36;;;;;;;7.67;2.50;;;21.70;18.00;;;;;;5018680;28;20471;-59
2022/07/27 05:58:05;;;;;;;5.47;2.10;;;22.00;17.20;;;;;;5020254;28;20475;-60
2022/07/27 06:00:32;;;;;;;5.07;2.03;;;22.30;16.50;;;;;;5021507;28;20534;-59
2022/07/27 06:02:58;;;;;;;5.00;1.90;;;23.80;14.30;;;;;;5024980;28;21151;-59
2022/07/27 06:05:25;;;;;;;6.00;2.30;;;24.00;13.10;;;;;;5022033;28;20486;-60
2022/07/27 06:08:02;;;;;;;5.73;2.30;;;23.80;12.80;;;;;;5022039;28;20459;-59
2022/07/27 06:10:31;;;;;;;5.30;2.00;;;23.80;13.10;;;;;;5023300;28;20470;-61
2022/07/27 06:12:58;;;;;;;5.10;2.10;;;23.80;13.40;;;;;;5019202;28;21084;-61
2022/07/27 06:15:27;;;;;;;6.33;2.53;;;24.00;12.90;;;;;;5022999;28;21050;-61
2022/07/27 06:17:54;;;;;;;7.30;2.40;;;24.40;12.10;;;;;;5022524;28;20471;-61
2022/07/27 06:20:22;;;;;;;5.37;2.10;;;25.60;11.10;;;;;;5022906;28;21087;-63
2022/07/27 06:22:51;;;;;;;4.33;1.93;;;27.90;7.50;;;;;;5022603;28;20466;-61
2022/07/27 06:25:18;;;;;;;6.63;2.97;;;28.60;5.00;;;;;;5031897;28;21348;-63
2022/07/27 06:27:45;;;;;;;7.37;4.00;;;29.50;4.00;;;;;;5024367;28;20462;-62
2022/07/27 06:30:14;;;;;;;11.97;3.33;;;31.00;1.90;;;;;;5025748;28;20482;-62
2022/07/27 06:32:43;;;;;;;5.60;2.80;;;30.90;1.00;;;;;;5038796;28;20460;-63
2022/07/27 06:35:10;;;;;;;5.40;2.20;;;30.40;1.30;;;;;;5021395;28;20463;-63
2022/07/27 06:37:42;;;;;;;4.83;2.30;;;29.90;1.70;;;;;;5018513;28;20459;-63
2022/07/27 06:40:11;;;;;;;5.53;2.10;;;29.60;2.30;;;;;;5023477;28;20467;-63
2022/07/27 06:42:38;;;;;;;5.40;2.10;;;29.20;3.10;;;;;;5023835;28;20861;-62
2022/07/27 06:45:05;;;;;;;5.63;1.97;;;29.00;3.60;;;;;;5034304;28;20569;-62
2022/07/27 06:47:32;;;;;;;4.60;2.20;;;29.50;3.50;;;;;;5024848;28;20978;-67
2022/07/27 06:50:00;;;;;;;7.90;2.10;;;29.50;3.20;;;;;;5020888;28;20490;-64
2022/07/27 06:52:27;;;;;;;5.33;2.30;;;29.10;3.60;;;;;;5019541;28;20561;-64
2022/07/27 06:54:54;;;;;;;4.03;1.70;;;28.70;3.50;;;;;;5019942;28;20983;-66
2022/07/27 06:57:21;;;;;;;3.90;1.80;;;28.40;4.30;;;;;;5019444;28;20530;-65
2022/07/27 06:59:49;;;;;;;5.47;1.90;;;28.20;4.70;;;;;;5021632;28;20483;-64
2022/07/27 07:02:16;;;;;;;5.10;2.30;;;28.10;4.90;;;;;;5023388;28;20481;-63
2022/07/27 07:04:43;;;;;;;5.27;2.60;;;28.30;5.10;;;;;;5022134;28;20490;-64
2022/07/27 07:07:11;;;;;;;6.83;2.50;;;30.30;4.00;;;;;;5027596;28;20489;-65
2022/07/27 07:09:38;;;;;;;5.83;1.90;;;34.00;1.00;;;;;;5025925;28;20528;-64
2022/07/27 07:12:06;;;;;;;4.80;1.87;;;34.70;1.00;;;;;;5022744;28;20477;-62
2022/07/27 07:14:33;;;;;;;5.50;2.00;;;36.10;1.00;;;;;;5025888;28;20462;-67
2022/07/27 07:17:00;;;;;;;8.03;2.63;;;37.40;1.00;;;;;;5028669;28;20458;-64
2022/07/27 07:19:27;;;;;;;6.33;2.27;;;39.60;1.00;;;;;;5025405;28;20552;-64
2022/07/27 07:21:54;;;;;;;4.27;2.00;;;40.90;1.00;;;;;;5027090;28;20463;-64
2022/07/27 07:24:22;;;;;;;6.00;2.00;;;42.40;1.00;;;;;;5026657;28;22426;-65
2022/07/27 07:26:49;;;;;;;4.90;2.00;;;44.00;1.00;;;;;;5026613;28;20493;-64
2022/07/27 07:29:16;;;;;;;4.23;1.60;;;45.00;1.00;;;;;;5023266;28;20481;-65
2022/07/27 07:31:42;;;;;;;5.60;1.70;;;46.20;1.00;;;;;;5023461;28;20540;-65
2022/07/27 07:34:09;;;;;;;5.00;1.87;;;47.50;1.00;;;;;;5026261;28;20478;-66
2022/07/27 07:36:36;;;;;;;6.23;1.90;;;48.50;1.00;;;;;;5026944;28;20455;-66
2022/07/27 07:39:03;;;;;;;5.60;1.70;;;49.40;1.00;;;;;;5021092;28;21183;-64
2022/07/27 07:41:31;;;;;;;5.80;1.77;;;50.40;1.00;;;;;;5026003;28;21070;-66
2022/07/27 07:43:58;;;;;;;4.77;1.70;;;51.10;1.00;;;;;;5023365;28;20881;-62
2022/07/27 07:46:25;;;;;;;7.13;2.10;;;51.60;1.00;;;;;;5025852;28;20486;-64
2022/07/27 07:48:52;;;;;;;4.40;1.77;;;52.10;1.00;;;;;;5023522;28;20467;-65
2022/07/27 07:51:18;;;;;;;3.20;1.40;;;52.90;1.00;;;;;;5025521;28;20819;-64
2022/07/27 07:53:45;;;;;;;3.60;1.53;;;53.40;1.00;;;;;;5024047;28;20481;-65
2022/07/27 07:56:13;;;;;;;9.60;2.07;;;53.70;1.00;;;;;;5024688;28;20468;-63
2022/07/27 07:58:41;;;;;;;3.90;1.50;;;54.00;1.00;;;;;;5026802;28;20465;-64
2022/07/27 08:01:08;;;;;;;4.27;1.50;;;54.30;1.00;;;;;;5023452;28;21006;-64
2022/07/27 08:03:34;;;;;;;3.00;1.20;;;53.20;1.00;;;;;;5025777;28;20490;-64
2022/07/27 08:06:01;;;;;;;3.70;1.30;;;52.10;1.00;;;;;;5024877;28;20471;-65
2022/07/27 08:08:28;;;;;;;4.03;1.07;;;52.30;1.00;;;;;;5026182;28;20463;-65
2022/07/27 08:10:55;;;;;;;3.57;1.57;;;53.20;1.00;;;;;;5024258;28;20597;-63
2022/07/27 08:13:22;;;;;;;4.60;2.27;;;53.80;1.00;;;;;;5027270;28;20466;-67
2022/07/27 08:15:51;;;;;;;3.80;1.47;;;54.40;1.00;;;;;;5023531;28;20465;-65
2022/07/27 08:18:18;;;;;;;4.03;1.40;;;54.60;1.00;;;;;;5021371;28;20469;-67
2022/07/27 08:20:45;;;;;;;4.57;1.70;;;55.20;1.00;;;;;;5023583;28;20482;-67
2022/07/27 08:23:12;;;;;;;3.20;1.07;;;55.50;1.00;;;;;;5026022;28;20458;-67
2022/07/27 08:25:39;;;;;;;4.23;1.57;;;55.80;1.00;;;;;;5025347;28;20997;-66
2022/07/27 08:28:06;;;;;;;4.17;1.40;;;54.50;1.00;;;;;;5024976;28;20466;-63
2022/07/27 08:30:32;;;;;;;3.80;1.43;;;52.90;1.00;;;;;;5028196;28;20466;-64
2022/07/27 08:33:03;;;;;;;5.13;1.73;;;51.50;1.00;;;;;;5025844;28;20469;-68
2022/07/27 08:35:31;;;;;;;2.90;1.20;;;51.50;1.00;;;;;;5022286;28;20462;-64
2022/07/27 08:37:59;;;;;;;3.33;1.40;;;53.20;1.00;;;;;;5028043;28;20476;-65
2022/07/27 08:40:27;;;;;;;3.83;1.60;;;54.60;1.00;;;;;;5025537;28;20486;-63
2022/07/27 08:42:53;;;;;;;4.23;1.37;;;55.90;1.00;;;;;;5032590;28;20469;-66
2022/07/27 08:45:23;;;;;;;4.53;1.50;;;56.90;1.00;;;;;;5025999;28;20474;-65
2022/07/27 08:47:50;;;;;;;3.97;1.37;;;57.10;1.00;;;;;;5023093;28;20545;-65
2022/07/27 08:50:23;;;;;;;5.43;1.60;;;56.50;1.00;;;;;;5024699;28;21217;-63
2022/07/27 08:52:53;;;;;;;3.90;1.50;;;55.10;1.00;;;;;;5025966;28;20458;-64
2022/07/27 08:55:21;;;;;;;4.37;1.53;;;54.10;1.00;;;;;;5025405;28;20508;-65
2022/07/27 08:57:47;;;;;;;6.63;1.30;;;53.40;1.00;;;;;;5023785;28;20506;-64
2022/07/27 09:00:15;;;;;;;5.67;1.50;;;53.10;1.00;;;;;;5024513;28;20489;-64
2022/07/27 09:02:42;;;;;;;4.63;1.87;;;53.80;1.00;;;;;;5026488;28;20463;-65
2022/07/27 09:05:10;;;;;;;4.80;1.53;;;53.20;1.00;;;;;;5026117;28;20473;-62
2022/07/27 09:07:38;;;;;;;3.50;1.43;;;53.70;1.00;;;;;;5018814;28;20957;-65
2022/07/27 09:10:05;;;;;;;4.33;1.70;;;53.80;1.00;;;;;;5024569;28;20505;-70
2022/07/27 09:12:33;;;;;;;3.73;1.20;;;54.40;1.00;;;;;;5026250;28;20501;-66
2022/07/27 09:15:06;;;;;;;4.20;1.40;;;53.70;1.00;;;;;;5024946;28;21198;-65
2022/07/27 09:17:33;;;;;;;6.10;1.23;;;53.50;1.00;;;;;;5025620;28;20625;-66
2022/07/27 09:20:03;;;;;;;3.30;1.30;;;54.30;1.00;;;;;;5026617;28;20494;-65
2022/07/27 09:22:43;;;;;;;5.03;2.00;;;55.50;1.00;;;;;;5023460;28;20466;-65
2022/07/27 09:25:11;;;;;;;4.80;1.67;;;56.50;1.00;;;;;;5020295;28;20477;-66
2022/07/27 09:27:38;;;;;;;3.33;1.53;;;56.50;1.00;;;;;;5023772;28;20485;-65
2022/07/27 09:30:07;;;;;;;3.53;1.40;;;56.30;1.00;;;;;;5022828;28;20474;-65
2022/07/27 09:32:34;;;;;;;3.87;1.40;;;56.50;1.00;;;;;;5020624;28;20475;-65
2022/07/27 09:35:15;;;;;;;3.50;1.23;;;56.00;1.00;;;;;;5023328;28;20968;-66
2022/07/27 09:37:44;;;;;;;5.27;1.57;;;54.10;1.00;;;;;;5021899;28;20485;-64
2022/07/27 09:40:12;;;;;;;6.10;1.23;;;52.00;1.00;;;;;;5021699;28;20474;-65
2022/07/27 09:42:39;;;;;;;6.33;1.60;;;50.20;1.00;;;;;;5023560;28;20458;-65
2022/07/27 09:45:31;;;;;;;7.80;2.10;;;49.90;1.00;;;;;;5023474;28;20455;-65
2022/07/27 09:48:11;;;;;;;4.93;1.53;;;49.50;1.00;;;;;;5024404;28;20458;-65
2022/07/27 09:50:40;;;;;;;3.93;1.43;;;49.20;1.00;;;;;;5024095;28;20479;-65
2022/07/27 09:53:17;;;;;;;3.90;1.50;;;48.70;1.00;;;;;;5024364;28;20471;-65
2022/07/27 09:55:44;;;;;;;5.10;1.33;;;49.40;1.00;;;;;;5022953;28;20500;-64
2022/07/27 09:58:12;;;;;;;3.70;1.37;;;48.00;1.00;;;;;;5024280;28;20883;-63
2022/07/27 10:00:39;;;;;;;3.60;1.13;;;47.00;1.00;;;;;;5022438;28;20475;-64
2022/07/27 10:03:06;;;;;;;3.57;1.60;;;46.20;1.00;;;;;;5023393;28;20454;-66
2022/07/27 10:05:33;;;;;;;5.83;1.30;;;45.10;1.00;;;;;;5021754;28;20465;-69
2022/07/27 10:08:00;;;;;;;3.90;1.57;;;43.90;1.00;;;;;;5023690;28;20462;-64
2022/07/27 10:10:28;;;;;;;6.73;1.77;;;43.10;1.00;;;;;;5025449;28;20479;-64
2022/07/27 10:12:55;;;;;;;4.67;1.70;;;42.60;1.00;;;;;;5022163;28;20493;-63
2022/07/27 10:15:22;;;;;;;3.57;1.70;;;41.80;1.00;;;;;;5021715;28;20463;-63
2022/07/27 10:17:57;;;;;;;5.30;1.87;;;40.70;1.00;;;;;;5023614;28;20462;-62
2022/07/27 10:20:24;;;;;;;4.33;1.93;;;39.50;1.00;;;;;;5025664;28;20493;-70
2022/07/27 10:22:54;;;;;;;4.13;1.60;;;38.80;1.00;;;;;;5022850;28;20844;-63
2022/07/27 10:25:21;;;;;;;4.47;1.73;;;38.20;1.00;;;;;;5016736;28;20462;-75
2022/07/27 10:28:08;;;;;;;6.50;2.03;;;37.70;1.00;;;;;;5021915;28;20446;-76
2022/07/27 10:30:36;;;;;;;5.53;2.20;;;37.10;1.00;;;;;;5022466;28;20474;-77
2022/07/27 10:33:13;;;;;;;5.13;2.30;;;36.80;1.00;;;;;;5023865;28;20466;-75
2022/07/27 10:35:40;;;;;;;4.37;1.80;;;36.80;1.00;;;;;;5022022;28;20462;-65
2022/07/27 10:38:09;;;;;;;6.77;1.80;;;36.70;1.00;;;;;;5019608;28;20463;-63
2022/07/27 10:40:36;;;;;;;4.20;2.07;;;36.60;1.00;;;;;;5025237;28;21018;-64
2022/07/27 10:43:10;;;;;;;4.87;2.17;;;36.40;1.00;;;;;;5021046;28;20473;-63
2022/07/27 10:45:40;;;;;;;3.77;1.70;;;36.10;1.00;;;;;;5027413;28;20456;-63
2022/07/27 10:48:07;;;;;;;7.33;2.10;;;35.90;1.00;;;;;;5027779;28;20454;-63
2022/07/27 10:50:34;;;;;;;5.80;2.10;;;35.70;1.00;;;;;;5027331;28;20466;-64
2022/07/27 10:53:05;;;;;;;5.10;1.77;;;35.50;1.00;;;;;;5023888;28;20851;-63
2022/07/27 10:55:45;;;;;;;4.13;1.80;;;35.30;1.00;;;;;;5026484;28;20467;-64
2022/07/27 10:58:48;;;;;;;4.70;1.87;;;35.20;1.00;;;;;;5027907;28;20458;-64
2022/07/27 11:01:17;;;;;;;3.60;1.80;;;35.00;1.00;;;;;;5032037;28;20497;-66
2022/07/27 11:03:53;;;;;;;3.90;2.20;;;34.80;1.00;;;;;;5027095;28;20454;-64
2022/07/27 11:06:28;;;;;;;4.40;2.00;;;34.50;1.00;;;;;;5025016;28;20526;-62
2022/07/27 11:08:56;;;;;;;5.07;2.63;;;34.40;1.00;;;;;;5026159;28;20497;-65
2022/07/27 11:11:25;;;;;;;5.27;2.20;;;34.30;1.00;;;;;;5024200;28;20505;-63
2022/07/27 11:13:56;;;;;;;4.17;2.10;;;34.10;1.00;;;;;;5026681;28;20451;-65
2022/07/27 11:16:23;;;;;;;4.30;2.10;;;34.00;1.00;;;;;;5021128;28;20469;-63
2022/07/27 11:18:55;;;;;;;4.63;1.73;;;33.80;1.00;;;;;;5027163;28;20473;-64
2022/07/27 11:21:24;;;;;;;5.47;2.10;;;33.80;1.00;;;;;;5024209;28;20455;-64
2022/07/27 11:23:52;;;;;;;5.07;2.20;;;33.80;1.00;;;;;;5024792;28;20462;-63
2022/07/27 11:26:21;;;;;;;5.07;1.70;;;33.70;1.00;;;;;;5024593;28;20482;-65
2022/07/27 11:28:48;;;;;;;4.87;1.70;;;33.80;1.00;;;;;;5026666;28;20469;-62
2022/07/27 11:31:17;;;;;;;3.97;1.63;;;33.80;1.00;;;;;;5026539;28;20467;-67
2022/07/27 11:34:05;;;;;;;5.30;1.87;;;33.70;1.00;;;;;;5025427;28;20943;-63
2022/07/27 11:36:37;;;;;;;5.40;2.00;;;33.50;1.00;;;;;;5017220;28;20931;-62
2022/07/27 11:39:06;;;;;;;4.73;1.90;;;33.30;1.00;;;;;;5027087;28;20483;-61
2022/07/27 11:41:35;;;;;;;5.37;2.27;;;33.10;1.00;;;;;;5028161;28;20455;-62
2022/07/27 11:44:05;;;;;;;6.23;1.50;;;33.10;1.00;;;;;;5027305;28;20528;-62
2022/07/27 11:46:34;;;;;;;5.37;2.43;;;33.00;1.00;;;;;;5024683;28;20471;-62
2022/07/27 11:49:05;;;;;;;4.70;1.90;;;32.90;1.00;;;;;;5024340;28;20509;-62
2022/07/27 11:51:33;;;;;;;4.60;1.80;;;32.90;1.00;;;;;;5025181;28;20471;-66
2022/07/27 11:54:02;;;;;;;4.70;1.73;;;32.90;1.00;;;;;;5025188;28;20478;-65
2022/07/27 11:56:30;;;;;;;3.60;1.67;;;33.00;1.00;;;;;;5026280;28;20986;-66
2022/07/27 11:59:06;;;;;;;4.70;1.50;;;33.10;1.00;;;;;;5025150;28;20481;-65
2022/07/27 12:01:36;;;;;;;7.03;1.80;;;33.00;1.00;;;;;;5023641;28;20479;-64
2022/07/27 12:04:05;;;;;;;6.03;1.70;;;32.80;1.00;;;;;;5024963;28;21099;-64
2022/07/27 12:06:33;;;;;;;5.60;1.73;;;32.70;1.00;;;;;;5030124;28;20497;-64
2022/07/27 12:09:00;;;;;;;4.57;1.67;;;32.80;1.00;;;;;;5027446;28;20911;-67
2022/07/27 12:11:43;;;;;;;5.93;1.83;;;32.70;1.00;;;;;;5022783;28;20463;-68
2022/07/27 12:14:12;;;;;;;5.20;1.60;;;32.60;1.00;;;;;;5025477;28;20467;-67
2022/07/27 12:16:40;;;;;;;4.83;1.87;;;32.50;1.00;;;;;;5022082;28;20517;-68
2022/07/27 12:19:07;;;;;;;4.43;1.90;;;32.40;1.00;;;;;;5026003;28;20483;-67
2022/07/27 12:21:33;;;;;;;7.10;2.50;;;32.20;1.00;;;;;;5025115;28;20485;-66
2022/07/27 12:24:01;;;;;;;4.93;2.00;;;32.00;1.00;;;;;;5024083;28;20463;-68
2022/07/27 12:26:27;;;;;;;6.43;2.40;;;31.80;1.00;;;;;;5023423;28;20494;-67
2022/07/27 12:29:07;;;;;;;5.90;2.20;;;31.60;1.00;;;;;;5025104;28;20490;-67
2022/07/27 12:31:36;;;;;;;4.83;1.80;;;31.40;1.00;;;;;;5021346;28;20480;-67
2022/07/27 12:34:05;;;;;;;4.97;1.93;;;31.30;1.00;;;;;;5025102;28;20470;-66
2022/07/27 12:36:32;;;;;;;8.80;2.40;;;31.30;1.00;;;;;;5026962;28;20462;-66
2022/07/27 12:38:59;;;;;;;5.00;2.23;;;31.30;1.00;;;;;;5027936;28;20526;-66
2022/07/27 12:41:28;;;;;;;4.63;1.77;;;31.30;1.00;;;;;;5022230;28;20455;-67
2022/07/27 12:44:06;;;;;;;9.30;1.90;;;31.30;1.00;;;;;;5024682;28;20450;-66
2022/07/27 12:46:33;;;;;;;5.87;2.10;;;31.30;1.00;;;;;;5024676;28;20494;-68
2022/07/27 12:49:00;;;;;;;6.63;2.40;;;31.30;1.00;;;;;;5025440;28;20503;-66
2022/07/27 12:51:28;;;;;;;4.70;2.53;;;31.20;1.00;;;;;;5027303;28;20819;-66
2022/07/27 12:53:55;;;;;;;6.10;2.10;;;31.20;1.00;;;;;;5024264;28;20467;-66
2022/07/27 12:56:21;;;;;;;6.43;1.93;;;31.20;1.00;;;;;;5022682;28;20857;-67
2022/07/27 12:58:58;;;;;;;4.40;2.20;;;31.20;1.00;;;;;;5023048;28;20459;-66